Time;durP1;ratioP1;P1;durP2;ratioP2;P2;SDS_P1;SDS_P2;PMS_P1;PMS_P2;Temp;Humidity;BMP_temperature;BMP_pressure;BME280_temperature;BME280_humidity;BME280_pressure;Samples;Min_cycle;Max_cycle;Signal;HPM_P1;HPM_P2
2023/07/07 00:00:00;;;;;;;13.93;7.60;;;;;;;;;;5098629;28;20438;-60
2023/07/07 00:02:27;;;;;;;15.23;7.60;;;;;;;;;;5101611;28;20452;-56
2023/07/07 00:04:55;;;;;;;18.93;7.60;;;;;;;;;;5101856;28;20488;-60
2023/07/07 00:07:22;;;;;;;11.17;6.67;;;;;;;;;;5100993;28;20446;-56
2023/07/07 00:09:49;;;;;;;10.10;5.33;;;;;;;;;;5096547;28;20504;-60
2023/07/07 00:12:20;;;;;;;9.30;6.40;;;18.00;99.90;;;;;;5101181;28;20461;-59
2023/07/07 00:14:47;;;;;;;11.87;6.40;;;17.80;99.90;;;;;;5101577;28;20477;-53
2023/07/07 00:17:15;;;;;;;10.77;6.27;;;17.90;99.90;;;;;;5100675;28;20443;-55
2023/07/07 00:19:43;;;;;;;10.40;7.17;;;17.70;99.90;;;;;;5094051;28;20478;-61
2023/07/07 00:22:10;;;;;;;9.50;6.27;;;;;;;;;;5101655;28;20422;-53
2023/07/07 00:24:37;;;;;;;11.73;6.80;;;17.50;99.90;;;;;;5098793;28;20484;-60
2023/07/07 00:27:05;;;;;;;12.63;6.27;;;;;;;;;;5096098;28;20441;-58
2023/07/07 00:29:33;;;;;;;10.03;6.90;;;;;;;;;;5098577;28;20472;-58
2023/07/07 00:32:00;;;;;;;12.53;6.10;;;;;;;;;;5095369;28;20438;-58
2023/07/07 00:34:28;;;;;;;7.53;5.47;;;17.70;99.90;;;;;;5097916;28;20449;-57
2023/07/07 00:36:55;;;;;;;9.30;5.63;;;18.10;99.90;;;;;;5091358;28;20454;-60
2023/07/07 00:39:22;;;;;;;8.73;6.23;;;17.80;99.90;;;;;;5092296;28;20519;-60
2023/07/07 00:41:49;;;;;;;7.77;5.03;;;;;;;;;;5092389;28;20466;-59
2023/07/07 00:44:16;;;;;;;8.80;6.87;;;;;;;;;;5099427;28;20473;-58
2023/07/07 00:46:44;;;;;;;11.67;5.43;;;17.40;99.90;;;;;;5099064;28;20439;-56
2023/07/07 00:49:15;;;;;;;10.87;5.27;;;17.70;99.90;;;;;;5099472;28;20457;-54
2023/07/07 00:51:47;;;;;;;5.80;5.20;;;17.60;99.90;;;;;;5098835;28;20443;-56
2023/07/07 00:54:18;;;;;;;7.53;5.20;;;17.60;99.90;;;;;;5093748;28;20490;-59
2023/07/07 00:56:49;;;;;;;6.33;4.60;;;17.90;99.90;;;;;;5093082;28;20498;-59
2023/07/07 00:59:19;;;;;;;6.00;4.43;;;17.60;99.90;;;;;;5086446;28;20544;-59
2023/07/07 01:01:48;;;;;;;9.10;5.23;;;17.50;99.90;;;;;;5084913;28;20450;-61
2023/07/07 01:04:18;;;;;;;6.60;4.33;;;17.70;99.90;;;;;;5094057;28;20454;-55
2023/07/07 01:06:53;;;;;;;7.00;4.57;;;17.40;99.90;;;;;;5091305;28;20427;-55
2023/07/07 01:09:21;;;;;;;7.03;4.97;;;;;;;;;;5095256;28;20478;-61
2023/07/07 01:11:50;;;;;;;10.10;4.67;;;17.50;99.90;;;;;;5091813;28;20489;-58
2023/07/07 01:14:20;;;;;;;8.23;5.03;;;17.90;99.90;;;;;;5097140;28;20449;-58
2023/07/07 01:16:57;;;;;;;9.60;5.10;;;17.60;99.90;;;;;;5090043;28;20462;-58
2023/07/07 01:19:54;;;;;;;8.90;5.00;;;17.60;99.90;;;;;;5092415;28;20501;-60
2023/07/07 01:22:47;;;;;;;5.50;4.70;;;17.50;99.90;;;;;;5091844;28;20470;-61
2023/07/07 01:25:27;;;;;;;6.17;4.40;;;17.40;99.90;;;;;;5090597;28;20470;-59
2023/07/07 01:28:11;;;;;;;5.10;4.37;;;17.40;99.90;;;;;;5098221;28;20462;-56
2023/07/07 01:30:46;;;;;;;6.50;5.17;;;17.40;99.90;;;;;;5091899;28;20426;-58
2023/07/07 01:33:17;;;;;;;6.83;4.20;;;17.90;99.90;;;;;;5092694;28;20466;-60
2023/07/07 01:35:45;;;;;;;8.97;5.00;;;;;;;;;;5089301;28;20473;-59
2023/07/07 01:38:32;;;;;;;6.17;3.90;;;16.90;99.90;;;;;;5093779;28;20495;-59
2023/07/07 01:41:07;;;;;;;10.10;5.60;;;17.20;99.90;;;;;;5090124;28;20454;-57
2023/07/07 01:43:40;;;;;;;7.00;4.90;;;17.10;99.90;;;;;;5093885;28;20426;-60
2023/07/07 01:46:17;;;;;;;6.37;4.37;;;17.10;99.90;;;;;;5083562;28;20458;-60
2023/07/07 01:48:50;;;;;;;6.87;4.40;;;17.10;99.90;;;;;;5093675;28;20426;-58
2023/07/07 01:51:21;;;;;;;6.63;4.50;;;17.20;99.90;;;;;;5095138;28;20482;-56
2023/07/07 01:53:50;;;;;;;5.43;3.93;;;17.00;99.90;;;;;;5095435;28;20438;-60
2023/07/07 01:56:22;;;;;;;8.10;4.40;;;17.20;99.90;;;;;;5086846;28;20503;-60
2023/07/07 01:58:49;;;;;;;5.53;3.57;;;16.90;99.90;;;;;;5091744;28;20580;-58
2023/07/07 02:01:19;;;;;;;5.77;4.10;;;17.00;99.90;;;;;;5087958;28;20553;-60
2023/07/07 02:03:46;;;;;;;8.10;3.73;;;;;;;;;;5093612;28;20423;-59
2023/07/07 02:06:13;;;;;;;7.17;4.97;;;;;;;;;;5096019;28;20454;-58
2023/07/07 02:08:40;;;;;;;5.47;3.70;;;;;;;;;;5093313;28;20841;-57
2023/07/07 02:11:07;;;;;;;6.87;4.20;;;;;;;;;;5092858;28;20462;-58
2023/07/07 02:13:36;;;;;;;5.10;3.90;;;17.20;99.90;;;;;;5094280;28;20965;-57
2023/07/07 02:16:03;;;;;;;6.70;4.17;;;16.80;99.90;;;;;;5096668;28;20473;-57
2023/07/07 02:18:31;;;;;;;4.47;4.07;;;16.70;99.90;;;;;;5093408;28;20531;-55
2023/07/07 02:20:58;;;;;;;9.53;4.70;;;;;;;;;;5088994;28;20453;-60
2023/07/07 02:23:26;;;;;;;6.60;4.83;;;;;;;;;;5092722;28;20474;-59
2023/07/07 02:25:53;;;;;;;5.90;4.63;;;;;;;;;;5094061;28;20459;-58
2023/07/07 02:28:20;;;;;;;7.57;5.07;;;;;;;;;;5096406;28;20439;-58
2023/07/07 02:30:50;;;;;;;7.43;4.47;;;;;;;;;;5093180;28;20494;-59
2023/07/07 02:33:17;;;;;;;6.87;5.23;;;;;;;;;;5095350;28;20442;-59
2023/07/07 02:35:48;;;;;;;9.20;5.63;;;16.50;99.90;;;;;;5090634;28;20979;-59
2023/07/07 02:38:17;;;;;;;7.73;5.27;;;;;;;;;;5093947;28;20472;-55
2023/07/07 02:40:44;;;;;;;7.50;4.80;;;16.50;99.90;;;;;;5092884;28;20492;-57
2023/07/07 02:43:11;;;;;;;9.03;4.83;;;;;;;;;;5089162;28;20442;-53
2023/07/07 02:45:38;;;;;;;10.27;6.43;;;;;;;;;;5094919;28;20479;-58
2023/07/07 02:48:06;;;;;;;8.00;4.93;;;;;;;;;;5094566;28;20426;-56
2023/07/07 02:50:33;;;;;;;9.00;5.60;;;;;;;;;;5087787;28;20478;-58
2023/07/07 02:53:01;;;;;;;7.60;6.03;;;16.30;99.90;;;;;;5092060;28;20498;-59
2023/07/07 02:55:28;;;;;;;8.50;5.67;;;;;;;;;;5090725;28;20446;-60
2023/07/07 02:57:57;;;;;;;10.93;5.47;;;;;;;;;;5090894;28;20466;-59
2023/07/07 03:00:24;;;;;;;8.27;5.13;;;;;;;;;;5093991;28;20446;-60
2023/07/07 03:02:51;;;;;;;6.63;5.37;;;16.20;99.90;;;;;;5094626;28;20438;-59
2023/07/07 03:05:20;;;;;;;6.90;5.23;;;16.10;99.90;;;;;;5092952;28;20446;-60
2023/07/07 03:07:47;;;;;;;11.40;6.20;;;;;;;;;;5093443;28;20434;-56
2023/07/07 03:10:18;;;;;;;6.60;4.90;;;16.30;99.90;;;;;;5089434;28;20458;-59
2023/07/07 03:12:45;;;;;;;11.43;4.77;;;16.00;99.90;;;;;;5094168;28;20425;-57
2023/07/07 03:15:12;;;;;;;8.00;5.17;;;;;;;;;;5092985;28;20458;-60
2023/07/07 03:17:40;;;;;;;7.13;5.93;;;;;;;;;;5087091;28;20481;-60
2023/07/07 03:20:09;;;;;;;9.23;5.03;;;16.30;99.90;;;;;;5087233;28;20485;-60
2023/07/07 03:22:36;;;;;;;8.83;5.23;;;16.30;99.90;;;;;;5090897;28;20427;-58
2023/07/07 03:25:06;;;;;;;9.17;5.60;;;16.50;99.90;;;;;;5093912;28;20466;-59
2023/07/07 03:27:34;;;;;;;9.27;4.90;;;16.40;99.90;;;;;;5096465;28;20498;-55
2023/07/07 03:30:02;;;;;;;6.50;5.43;;;;;;;;;;5094447;28;20463;-60
2023/07/07 03:32:29;;;;;;;6.53;5.10;;;;;;;;;;5085364;28;20474;-59
2023/07/07 03:34:56;;;;;;;4.53;3.83;;;;;;;;;;5090528;28;20910;-55
2023/07/07 03:37:23;;;;;;;7.83;4.90;;;16.60;99.90;;;;;;5090673;28;20475;-52
2023/07/07 03:39:50;;;;;;;5.23;4.73;;;;;;;;;;5096065;28;20506;-56
2023/07/07 03:42:17;;;;;;;5.87;4.20;;;16.50;99.90;;;;;;5091982;28;20450;-58
2023/07/07 03:44:45;;;;;;;6.53;4.37;;;16.50;99.90;;;;;;5094756;28;20462;-58
2023/07/07 03:47:12;;;;;;;10.63;5.07;;;;;;;;;;5095838;28;20446;-57
2023/07/07 03:49:39;;;;;;;7.70;4.67;;;;;;;;;;5091376;28;20526;-60
2023/07/07 03:52:07;;;;;;;7.90;4.77;;;16.40;99.90;;;;;;5095171;28;20466;-52
2023/07/07 03:54:34;;;;;;;7.80;4.30;;;;;;;;;;5096106;28;20499;-57
2023/07/07 03:57:01;;;;;;;6.60;5.00;;;;;;;;;;5090935;28;20516;-60
2023/07/07 03:59:28;;;;;;;7.27;4.10;;;;;;;;;;5091588;28;20491;-59
2023/07/07 04:01:56;;;;;;;9.07;5.00;;;16.40;99.90;;;;;;5092857;28;20506;-59
2023/07/07 04:04:25;;;;;;;8.67;5.10;;;16.30;99.90;;;;;;5080264;28;20526;-59
2023/07/07 04:06:54;;;;;;;7.10;4.63;;;16.30;99.90;;;;;;5093575;28;20481;-60
2023/07/07 04:09:22;;;;;;;9.00;5.37;;;16.50;99.90;;;;;;5099576;28;20427;-58
2023/07/07 04:11:50;;;;;;;8.93;4.83;;;;;;;;;;5098443;28;20470;-60
2023/07/07 04:14:18;;;;;;;4.67;3.90;;;;;;;;;;5087968;28;20446;-57
2023/07/07 04:16:45;;;;;;;5.77;4.00;;;;;;;;;;5094209;28;20510;-60
2023/07/07 04:19:13;;;;;;;7.27;4.33;;;16.50;99.90;;;;;;5097638;28;20446;-57
2023/07/07 04:21:40;;;;;;;8.00;3.57;;;17.40;99.90;;;;;;5098082;28;20553;-58
2023/07/07 04:24:08;;;;;;;5.50;4.30;;;;;;;;;;5093458;28;20486;-57
2023/07/07 04:26:38;;;;;;;5.43;3.83;;;16.70;99.90;;;;;;5093187;28;20519;-59
2023/07/07 04:29:05;;;;;;;8.37;5.33;;;;;;;;;;5095939;28;20550;-57
2023/07/07 04:31:33;;;;;;;7.97;5.13;;;;;;;;;;5095020;28;20444;-59
2023/07/07 04:34:00;;;;;;;9.20;5.27;;;;;;;;;;5092644;28;20462;-60
2023/07/07 04:36:28;;;;;;;7.13;4.80;;;17.10;99.90;;;;;;5091129;28;20457;-59
2023/07/07 04:38:55;;;;;;;6.33;4.70;;;;;;;;;;5097946;28;20488;-55
2023/07/07 04:41:24;;;;;;;5.80;5.03;;;17.10;99.90;;;;;;5094388;28;20454;-59
2023/07/07 04:43:53;;;;;;;6.40;4.60;;;17.20;99.90;;;;;;5092814;28;20477;-54
2023/07/07 04:46:22;;;;;;;10.43;5.33;;;;;;;;;;5088469;28;20473;-57
2023/07/07 04:48:49;;;;;;;9.60;6.47;;;17.60;99.90;;;;;;5095719;28;20453;-56
2023/07/07 04:51:16;;;;;;;9.43;5.87;;;;;;;;;;5098031;28;20455;-60
2023/07/07 04:53:44;;;;;;;13.53;8.27;;;17.00;99.90;;;;;;5094211;28;20482;-59
2023/07/07 04:56:14;;;;;;;14.83;7.70;;;17.30;99.90;;;;;;5093328;28;20462;-58
2023/07/07 04:58:41;;;;;;;31.33;11.17;;;;;;;;;;5093221;28;20477;-57
2023/07/07 05:01:10;;;;;;;16.30;8.43;;;17.90;99.90;;;;;;5090522;28;20468;-60
2023/07/07 05:03:41;;;;;;;19.60;8.10;;;17.60;99.90;;;;;;5096884;28;20481;-56
2023/07/07 05:06:08;;;;;;;21.83;9.07;;;;;;;;;;5087227;28;20440;-60
2023/07/07 05:08:38;;;;;;;34.93;13.27;;;17.80;99.90;;;;;;5091670;28;20493;-60
2023/07/07 05:11:08;;;;;;;20.87;10.93;;;17.80;99.90;;;;;;5090348;28;20450;-54
2023/07/07 05:13:35;;;;;;;31.00;12.20;;;;;;;;;;5096461;28;20461;-52
2023/07/07 05:16:04;;;;;;;38.23;12.17;;;18.20;99.90;;;;;;5097292;28;20434;-59
2023/07/07 05:18:31;;;;;;;25.90;11.40;;;;;;;;;;5094314;28;20438;-56
2023/07/07 05:20:58;;;;;;;33.40;11.80;;;18.10;99.90;;;;;;5095177;28;20506;-60
2023/07/07 05:23:26;;;;;;;39.10;11.87;;;;;;;;;;5097985;28;20465;-57
2023/07/07 05:25:53;;;;;;;24.27;8.53;;;;;;;;;;5090314;28;20462;-61
2023/07/07 05:28:22;;;;;;;11.50;5.83;;;;;;;;;;5092553;28;20442;-56
2023/07/07 05:30:49;;;;;;;7.43;5.83;;;;;;;;;;5096192;28;20462;-58
2023/07/07 05:33:18;;;;;;;9.80;4.80;;;18.50;99.90;;;;;;5092208;28;20447;-56
2023/07/07 05:35:48;;;;;;;5.80;4.13;;;18.20;99.90;;;;;;5087558;28;20427;-59
2023/07/07 05:38:16;;;;;;;7.93;5.40;;;18.70;99.90;;;;;;5082350;28;20506;-61
2023/07/07 05:40:45;;;;;;;21.03;7.30;;;;;;;;;;5095885;28;20481;-54
2023/07/07 05:43:15;;;;;;;12.07;6.73;;;18.60;99.90;;;;;;5092720;28;20458;-57
2023/07/07 05:45:44;;;;;;;6.50;3.60;;;19.00;99.90;;;;;;5096093;28;20876;-54
2023/07/07 05:48:12;;;;;;;8.33;4.90;;;18.90;99.90;;;;;;5097770;28;20443;-57
2023/07/07 05:50:40;;;;;;;5.07;4.10;;;19.30;99.90;;;;;;5088970;28;20497;-55
2023/07/07 05:53:07;;;;;;;6.00;4.30;;;;;;;;;;5087542;28;20462;-55
2023/07/07 05:55:38;;;;;;;5.67;3.80;;;19.80;99.90;;;;;;5095971;28;20516;-57
2023/07/07 05:58:05;;;;;;;4.90;4.20;;;19.30;99.90;;;;;;5085180;28;20423;-57
2023/07/07 06:00:34;;;;;;;5.60;3.73;;;19.10;99.90;;;;;;5087989;28;20517;-60
2023/07/07 06:03:02;;;;;;;4.57;3.20;;;19.60;99.90;;;;;;5084532;28;21004;-60
2023/07/07 06:05:30;;;;;;;5.30;3.47;;;;;;;;;;5085452;28;20519;-56
2023/07/07 06:07:57;;;;;;;6.63;3.50;;;;;;;;;;5081991;28;20545;-60
2023/07/07 06:10:24;;;;;;;4.33;3.53;;;;;;;;;;5087910;28;20439;-59
2023/07/07 06:12:51;;;;;;;5.37;3.60;;;;;;;;;;5095696;28;20430;-57
2023/07/07 06:15:19;;;;;;;4.13;3.63;;;;;;;;;;5091882;28;20465;-55
2023/07/07 06:17:46;;;;;;;5.60;3.23;;;;;;;;;;5093072;28;20418;-54
2023/07/07 06:20:15;;;;;;;8.83;3.30;;;;;;;;;;5097826;28;20477;-54
2023/07/07 06:22:43;;;;;;;6.23;2.63;;;;;;;;;;5098148;28;20418;-56
2023/07/07 06:25:10;;;;;;;5.80;3.50;;;;;;;;;;5095570;28;20457;-56
2023/07/07 06:27:37;;;;;;;6.03;3.70;;;;;;;;;;5095948;28;21009;-49
2023/07/07 06:30:05;;;;;;;4.33;3.47;;;20.40;99.90;;;;;;5094117;28;20629;-58
2023/07/07 06:32:32;;;;;;;2.97;2.77;;;;;;;;;;5091372;28;20438;-60
2023/07/07 06:34:59;;;;;;;10.07;3.87;;;20.40;99.90;;;;;;5075258;28;20537;-62
2023/07/07 06:37:27;;;;;;;7.93;3.13;;;20.60;99.90;;;;;;5079527;28;20478;-61
2023/07/07 06:39:55;;;;;;;3.00;2.60;;;;;;;;;;5080501;28;20549;-60
2023/07/07 06:42:21;;;;;;;6.17;2.83;;;20.70;99.90;;;;;;5081363;28;20522;-61
2023/07/07 06:44:48;;;;;;;6.17;3.80;;;;;;;;;;5075627;28;20439;-60
2023/07/07 06:47:17;;;;;;;8.47;3.40;;;;;;;;;;5075023;28;20477;-63
2023/07/07 06:49:44;;;;;;;5.60;2.67;;;;;;;;;;5084287;28;20501;-57
2023/07/07 06:52:11;;;;;;;4.33;2.97;;;20.80;99.90;;;;;;5078206;28;20434;-59
2023/07/07 06:54:39;;;;;;;13.93;3.20;;;21.20;99.90;;;;;;5077510;28;20442;-59
2023/07/07 06:57:06;;;;;;;3.20;2.50;;;21.30;99.90;;;;;;5076656;28;20470;-61
2023/07/07 06:59:34;;;;;;;3.93;2.57;;;;;;;;;;5077096;28;20489;-63
2023/07/07 07:02:01;;;;;;;3.47;2.33;;;21.30;99.90;;;;;;5081346;28;20489;-60
2023/07/07 07:04:28;;;;;;;3.90;3.17;;;21.60;99.90;;;;;;5079662;28;20529;-60
2023/07/07 07:06:54;;;;;;;6.67;2.90;;;21.90;99.90;;;;;;5077725;28;20500;-60
2023/07/07 07:09:22;;;;;;;2.90;2.30;;;;;;;;;;5081115;28;20923;-59
2023/07/07 07:11:50;;;;;;;15.93;8.27;;;21.50;99.90;;;;;;5081790;28;20458;-60
2023/07/07 07:14:17;;;;;;;6.00;2.80;;;22.20;99.90;;;;;;5081789;28;20527;-59
2023/07/07 07:16:45;;;;;;;5.10;2.67;;;22.70;99.90;;;;;;5085936;28;20462;-59
2023/07/07 07:19:12;;;;;;;3.10;2.60;;;;;;;;;;5083706;28;20474;-60
2023/07/07 07:21:39;;;;;;;3.23;2.20;;;23.20;99.90;;;;;;5078128;28;20578;-61
2023/07/07 07:24:06;;;;;;;3.20;2.00;;;25.00;97.30;;;;;;5084730;28;20452;-60
2023/07/07 07:26:33;;;;;;;7.03;2.97;;;;;;;;;;5079847;28;20474;-60
2023/07/07 07:29:01;;;;;;;3.07;2.30;;;28.50;98.60;;;;;;5084699;28;20914;-61
2023/07/07 07:31:28;;;;;;;3.13;2.20;;;30.20;93.30;;;;;;5079666;28;20826;-61
2023/07/07 07:33:56;;;;;;;9.30;7.07;;;31.50;79.60;;;;;;5077728;28;20885;-61
2023/07/07 07:36:26;;;;;;;5.50;3.57;;;32.90;54.20;;;;;;5074617;28;20462;-59
2023/07/07 07:38:53;;;;;;;3.00;2.63;;;;;;;;;;5076947;28;20466;-62
2023/07/07 07:41:20;;;;;;;2.53;2.33;;;34.50;54.40;;;;;;5082640;28;20588;-62
2023/07/07 07:43:47;;;;;;;3.80;2.40;;;35.20;73.30;;;;;;5082197;28;20525;-61
2023/07/07 07:46:15;;;;;;;4.60;2.47;;;35.70;70.60;;;;;;5082048;28;20497;-61
2023/07/07 07:48:42;;;;;;;2.30;2.10;;;36.40;75.20;;;;;;5078632;28;20528;-59
2023/07/07 07:51:09;;;;;;;2.53;1.90;;;36.30;53.10;;;;;;5078301;28;20528;-59
2023/07/07 07:53:36;;;;;;;4.00;2.40;;;36.30;72.30;;;;;;5079953;28;20482;-61
2023/07/07 07:56:03;;;;;;;4.83;1.70;;;36.30;66.90;;;;;;5080795;28;20473;-61
2023/07/07 07:58:30;;;;;;;4.27;2.57;;;36.20;72.80;;;;;;5084113;28;20477;-61
2023/07/07 08:00:56;;;;;;;2.90;2.00;;;36.70;60.30;;;;;;5081813;28;20540;-58
2023/07/07 08:03:25;;;;;;;2.43;2.23;;;;;;;;;;5082628;28;20507;-59
2023/07/07 08:05:52;;;;;;;2.70;2.40;;;37.50;70.10;;;;;;5084021;28;20450;-61
2023/07/07 08:08:19;;;;;;;2.93;2.40;;;37.80;61.40;;;;;;5082366;28;20553;-61
2023/07/07 08:10:45;;;;;;;3.30;2.07;;;38.00;59.90;;;;;;5081671;28;20537;-58
2023/07/07 08:13:12;;;;;;;4.00;2.23;;;38.00;63.40;;;;;;5077896;28;20526;-60
2023/07/07 08:15:39;;;;;;;2.40;1.90;;;38.20;68.10;;;;;;5079000;28;20485;-59
2023/07/07 08:18:06;;;;;;;2.70;2.30;;;38.40;48.60;;;;;;5080734;28;20492;-62
2023/07/07 08:20:34;;;;;;;5.47;3.10;;;38.40;36.20;;;;;;5082338;28;20545;-62
2023/07/07 08:23:01;;;;;;;3.10;2.23;;;38.80;68.10;;;;;;5086081;28;20477;-54
2023/07/07 08:25:28;;;;;;;3.20;1.93;;;38.40;59.50;;;;;;5082857;28;20525;-60
2023/07/07 08:27:56;;;;;;;2.90;2.33;;;;;;;;;;5083940;28;20529;-61
2023/07/07 08:30:23;;;;;;;2.37;2.17;;;38.40;59.30;;;;;;5084891;28;20485;-59
2023/07/07 08:32:50;;;;;;;2.60;1.90;;;38.60;67.70;;;;;;5084297;28;20446;-60
2023/07/07 08:35:18;;;;;;;2.47;1.57;;;38.10;34.70;;;;;;5083045;28;20473;-62
2023/07/07 08:37:49;;;;;;;2.10;1.80;;;38.30;58.80;;;;;;5081610;28;20446;-57
2023/07/07 08:40:21;;;;;;;2.00;1.67;;;37.80;57.70;;;;;;5083411;28;20466;-62
2023/07/07 08:42:48;;;;;;;2.03;1.83;;;37.80;58.70;;;;;;5083713;28;20466;-61
2023/07/07 08:45:17;;;;;;;1.90;1.70;;;37.60;59.40;;;;;;5083019;28;20624;-61
2023/07/07 08:47:55;;;;;;;2.20;1.87;;;38.10;58.60;;;;;;5083940;28;20467;-63
2023/07/07 08:50:31;;;;;;;2.47;2.27;;;37.80;58.40;;;;;;5083192;28;20774;-61
2023/07/07 08:53:11;;;;;;;2.77;2.10;;;38.20;58.40;;;;;;5080997;28;20473;-62
2023/07/07 08:55:50;;;;;;;3.10;2.80;;;38.10;66.90;;;;;;5082702;28;20458;-60
2023/07/07 08:58:25;;;;;;;2.93;2.07;;;38.10;47.90;;;;;;5080734;28;20427;-61
2023/07/07 09:01:03;;;;;;;2.23;2.03;;;37.90;35.20;;;;;;5083060;28;20957;-60
2023/07/07 09:03:47;;;;;;;1.93;1.70;;;37.70;67.90;;;;;;5080341;28;20434;-62
2023/07/07 09:06:25;;;;;;;3.00;2.10;;;37.70;63.40;;;;;;5082300;28;20441;-62
2023/07/07 09:08:58;;;;;;;1.60;1.40;;;37.70;59.10;;;;;;5083375;28;20462;-59
2023/07/07 09:11:41;;;;;;;2.87;2.37;;;38.10;58.50;;;;;;5080057;28;20474;-58
2023/07/07 09:14:11;;;;;;;2.77;2.13;;;37.80;34.90;;;;;;5080738;28;20466;-58
2023/07/07 09:16:42;;;;;;;2.00;1.80;;;37.70;35.00;;;;;;5082062;28;20521;-59
2023/07/07 09:19:15;;;;;;;5.43;2.80;;;38.10;35.30;;;;;;5083741;28;20434;-58
2023/07/07 09:21:46;;;;;;;2.13;1.60;;;37.50;64.80;;;;;;5078658;28;20520;-58
2023/07/07 09:24:23;;;;;;;2.27;1.80;;;37.60;33.90;;;;;;5076923;28;20494;-59
2023/07/07 09:26:53;;;;;;;1.73;1.53;;;37.30;62.70;;;;;;5079169;28;20466;-59
2023/07/07 09:29:26;;;;;;;1.93;1.73;;;37.40;58.90;;;;;;5080006;28;20481;-61
2023/07/07 09:31:53;;;;;;;5.20;1.90;;;;;;;;;;5077957;28;20823;-60
2023/07/07 09:34:22;;;;;;;2.87;2.00;;;37.40;34.20;;;;;;5080060;28;20529;-59
2023/07/07 09:36:55;;;;;;;3.00;1.90;;;37.40;57.30;;;;;;5080002;28;20443;-60
2023/07/07 09:39:38;;;;;;;1.60;1.47;;;37.20;41.80;;;;;;5082257;28;20445;-59
2023/07/07 09:42:19;;;;;;;3.30;1.97;;;37.00;57.90;;;;;;5082021;28;20527;-61
2023/07/07 09:45:02;;;;;;;2.03;1.83;;;37.20;64.50;;;;;;5083097;28;20430;-58
2023/07/07 09:47:39;;;;;;;1.90;1.80;;;36.80;36.10;;;;;;5079165;28;20437;-60
2023/07/07 09:50:11;;;;;;;1.93;1.73;;;37.10;58.90;;;;;;5076291;28;20466;-57
2023/07/07 09:52:46;;;;;;;3.70;2.20;;;37.20;65.60;;;;;;5077382;28;20446;-61
2023/07/07 09:55:23;;;;;;;2.83;1.97;;;37.50;60.30;;;;;;5077562;28;20496;-57
2023/07/07 09:58:01;;;;;;;1.67;1.57;;;37.10;66.50;;;;;;5078531;28;20484;-56
2023/07/07 10:00:30;;;;;;;2.60;1.70;;;37.40;65.90;;;;;;5080293;28;20470;-60
2023/07/07 10:02:58;;;;;;;2.70;2.20;;;37.30;33.80;;;;;;5075189;28;20470;-56
2023/07/07 10:05:31;;;;;;;1.87;1.57;;;37.00;34.60;;;;;;5078330;28;20478;-58
2023/07/07 10:08:00;;;;;;;2.67;2.07;;;36.90;57.80;;;;;;5078781;28;20476;-57
2023/07/07 10:10:28;;;;;;;2.00;1.80;;;36.70;34.90;;;;;;5081158;28;20531;-58
2023/07/07 10:12:55;;;;;;;2.07;1.87;;;36.20;58.80;;;;;;5080263;28;20494;-59
2023/07/07 10:15:45;;;;;;;3.00;2.00;;;36.00;51.60;;;;;;5080453;28;20451;-61
2023/07/07 10:18:16;;;;;;;5.70;2.00;;;35.70;37.10;;;;;;5080472;28;20466;-60
2023/07/07 10:20:43;;;;;;;4.27;1.83;;;;;;;;;;5081939;28;20482;-61
2023/07/07 10:23:12;;;;;;;2.50;1.93;;;35.60;61.10;;;;;;5075988;28;20950;-59
2023/07/07 10:25:44;;;;;;;2.73;1.83;;;35.70;35.90;;;;;;5078648;28;20449;-60
2023/07/07 10:28:14;;;;;;;1.77;1.67;;;35.50;62.70;;;;;;5081982;28;20431;-59
2023/07/07 10:30:42;;;;;;;3.00;1.57;;;35.10;37.50;;;;;;5080151;28;20493;-59
2023/07/07 10:33:14;;;;;;;2.10;1.90;;;34.80;38.10;;;;;;5080352;28;20453;-60
2023/07/07 10:35:41;;;;;;;2.03;1.73;;;;;;;;;;5077585;28;20478;-61
2023/07/07 10:38:10;;;;;;;1.97;1.53;;;34.40;60.50;;;;;;5084876;28;20452;-60
2023/07/07 10:40:38;;;;;;;3.23;1.70;;;34.40;60.90;;;;;;5081115;28;20470;-60
2023/07/07 10:43:10;;;;;;;2.10;1.60;;;34.30;39.00;;;;;;5080638;28;20529;-60
2023/07/07 10:45:37;;;;;;;1.80;1.50;;;34.10;71.60;;;;;;5080331;28;20469;-61
2023/07/07 10:48:09;;;;;;;3.10;1.80;;;33.80;36.50;;;;;;5078227;28;20474;-59
2023/07/07 10:50:41;;;;;;;2.07;1.70;;;33.40;38.70;;;;;;5077658;28;20808;-59
2023/07/07 10:53:18;;;;;;;3.20;2.00;;;33.00;40.00;;;;;;5075007;28;20841;-59
2023/07/07 10:56:04;;;;;;;7.70;4.83;;;32.70;65.20;;;;;;5079792;28;20874;-58
2023/07/07 10:58:50;;;;;;;4.87;2.47;;;32.60;68.00;;;;;;5066221;28;20508;-60
2023/07/07 11:01:29;;;;;;;5.40;3.30;;;32.30;51.50;;;;;;5080408;28;20462;-59
2023/07/07 11:04:15;;;;;;;2.43;2.03;;;31.90;67.50;;;;;;5080329;28;20535;-55
2023/07/07 11:06:59;;;;;;;2.00;1.80;;;31.70;67.60;;;;;;5087298;28;20434;-60
2023/07/07 11:09:40;;;;;;;2.90;2.10;;;31.80;43.80;;;;;;5076860;28;20504;-56
2023/07/07 11:12:17;;;;;;;3.83;2.53;;;31.80;74.90;;;;;;5076832;28;20450;-57
2023/07/07 11:14:57;;;;;;;2.40;2.00;;;31.70;76.30;;;;;;5080288;28;20430;-62
2023/07/07 11:17:44;;;;;;;2.07;1.87;;;31.60;37.50;;;;;;5080382;28;20450;-60
2023/07/07 11:20:31;;;;;;;3.27;1.90;;;31.60;67.70;;;;;;5080568;28;20441;-60
2023/07/07 11:23:25;;;;;;;3.63;1.90;;;31.20;42.10;;;;;;5074578;28;20549;-59
2023/07/07 11:26:03;;;;;;;5.20;2.23;;;31.10;68.30;;;;;;5077932;28;20806;-61
2023/07/07 11:28:42;;;;;;;3.00;2.67;;;31.30;77.00;;;;;;5080808;28;20461;-57
2023/07/07 11:31:30;;;;;;;2.70;2.10;;;31.00;44.30;;;;;;5081429;28;20422;-59
2023/07/07 11:34:10;;;;;;;6.70;2.33;;;30.80;79.10;;;;;;5076182;28;20568;-60
2023/07/07 11:36:48;;;;;;;2.13;1.57;;;31.00;70.40;;;;;;5080353;28;20430;-61
2023/07/07 11:39:32;;;;;;;2.50;2.00;;;30.90;77.40;;;;;;5081038;28;20507;-60
2023/07/07 11:42:24;;;;;;;3.20;2.37;;;31.10;43.70;;;;;;5074441;28;20553;-60
2023/07/07 11:45:05;;;;;;;2.90;2.07;;;31.40;77.40;;;;;;5075857;28;20511;-59
2023/07/07 11:47:46;;;;;;;2.60;1.93;;;30.30;69.40;;;;;;5077636;28;20430;-60
2023/07/07 11:50:28;;;;;;;3.17;2.17;;;30.30;44.60;;;;;;5077848;28;20523;-56
2023/07/07 11:53:10;;;;;;;2.30;2.10;;;30.30;77.10;;;;;;5080658;28;20433;-56
2023/07/07 11:55:52;;;;;;;2.77;1.93;;;30.30;71.50;;;;;;5075681;28;20466;-59
2023/07/07 11:58:28;;;;;;;2.70;2.17;;;30.00;80.60;;;;;;5075169;28;20534;-59
2023/07/07 12:01:13;;;;;;;2.70;2.33;;;30.10;80.70;;;;;;5078158;28;20446;-58
2023/07/07 12:03:53;;;;;;;4.40;2.60;;;30.30;72.80;;;;;;5079216;28;20430;-60
2023/07/07 12:06:27;;;;;;;2.33;2.13;;;30.20;77.00;;;;;;5081003;28;20434;-60
2023/07/07 12:09:08;;;;;;;2.33;1.83;;;30.30;70.80;;;;;;5080516;28;20423;-62
2023/07/07 12:11:41;;;;;;;2.53;2.27;;;30.20;45.50;;;;;;5077406;28;20452;-60
2023/07/07 12:14:31;;;;;;;2.23;2.03;;;30.30;71.80;;;;;;5079579;28;20484;-56
2023/07/07 12:17:00;;;;;;;3.40;3.00;;;30.10;44.80;;;;;;5078368;28;20445;-60
2023/07/07 12:19:37;;;;;;;3.13;2.13;;;29.80;45.00;;;;;;5079401;28;20470;-58
2023/07/07 12:22:22;;;;;;;4.27;2.63;;;29.20;52.40;;;;;;5085236;28;20505;-57
2023/07/07 12:24:56;;;;;;;2.27;2.07;;;29.80;73.90;;;;;;5081032;28;20500;-59
2023/07/07 12:27:29;;;;;;;2.93;2.10;;;29.80;45.70;;;;;;5081343;28;20465;-61
2023/07/07 12:29:56;;;;;;;3.40;2.00;;;;;;;;;;5084304;28;20466;-60
2023/07/07 12:32:24;;;;;;;2.73;2.30;;;29.30;58.00;;;;;;5082561;28;20472;-61
2023/07/07 12:35:07;;;;;;;2.83;2.13;;;29.50;73.40;;;;;;5083937;28;20534;-60
2023/07/07 12:37:35;;;;;;;3.10;2.00;;;29.80;82.60;;;;;;5083757;28;20427;-59
2023/07/07 12:40:13;;;;;;;5.50;2.97;;;29.90;46.20;;;;;;5084275;28;20447;-59
2023/07/07 12:42:43;;;;;;;4.33;2.23;;;29.60;80.40;;;;;;5077359;28;20786;-60
2023/07/07 12:45:19;;;;;;;3.40;2.50;;;29.50;73.60;;;;;;5078731;28;20423;-60
2023/07/07 12:47:53;;;;;;;3.10;1.90;;;29.90;45.30;;;;;;5080503;28;20430;-62
2023/07/07 12:50:27;;;;;;;3.87;2.13;;;;;;;;;;5084520;28;20438;-60
2023/07/07 12:52:59;;;;;;;7.03;2.20;;;30.00;45.20;;;;;;5081445;28;20495;-61
2023/07/07 12:55:29;;;;;;;4.27;2.37;;;29.70;71.60;;;;;;5084754;28;20519;-60
2023/07/07 12:58:24;;;;;;;4.10;2.27;;;29.90;45.50;;;;;;5085800;28;20764;-61
2023/07/07 13:01:06;;;;;;;2.23;2.00;;;29.80;40.60;;;;;;5085454;28;20477;-62
2023/07/07 13:03:33;;;;;;;4.40;2.80;;;29.80;71.30;;;;;;5085887;28;20422;-61
2023/07/07 13:06:26;;;;;;;3.20;2.63;;;29.80;46.50;;;;;;5084226;28;20448;-61
2023/07/07 13:09:16;;;;;;;5.53;2.20;;;29.50;71.80;;;;;;5077428;28;20426;-61
2023/07/07 13:11:45;;;;;;;2.43;2.23;;;29.90;45.00;;;;;;5081303;28;20500;-60
2023/07/07 13:14:28;;;;;;;3.13;2.50;;;29.90;44.60;;;;;;5080348;28;21015;-61
2023/07/07 13:16:55;;;;;;;4.13;2.63;;;;;;;;;;5080862;28;20430;-59
2023/07/07 13:19:23;;;;;;;3.17;2.87;;;;;;;;;;5080388;28;20466;-60
2023/07/07 13:21:54;;;;;;;2.43;1.93;;;29.50;77.30;;;;;;5080423;28;20482;-58
2023/07/07 13:24:22;;;;;;;4.93;3.63;;;29.60;80.20;;;;;;5080508;28;20426;-60
2023/07/07 13:26:49;;;;;;;4.30;3.27;;;29.60;73.40;;;;;;5080216;28;20505;-60
2023/07/07 13:29:16;;;;;;;4.73;2.67;;;29.90;81.00;;;;;;5080341;28;20478;-62
2023/07/07 13:31:44;;;;;;;4.20;2.00;;;29.50;80.70;;;;;;5076690;28;20482;-61
2023/07/07 13:34:14;;;;;;;2.43;2.23;;;29.60;77.50;;;;;;5077606;28;20471;-60